sensor_id;sensor_type;location;lat;lon;timestamp;P1;durP1;ratioP1;P2;durP2;ratioP2
11338;SDS011;5724;42.684;23.252;2023-09-18T00:00:38;14.45;;;13.25;;
11338;SDS011;5724;42.684;23.252;2023-09-18T00:03:04;13.90;;;12.80;;
11338;SDS011;5724;42.684;23.252;2023-09-18T00:05:30;14.82;;;13.57;;
11338;SDS011;5724;42.684;23.252;2023-09-18T00:07:56;13.80;;;12.77;;
11338;SDS011;5724;42.684;23.252;2023-09-18T00:10:21;14.02;;;12.75;;
11338;SDS011;5724;42.684;23.252;2023-09-18T00:12:47;15.15;;;13.82;;
11338;SDS011;5724;42.684;23.252;2023-09-18T00:15:12;13.90;;;12.77;;
11338;SDS011;5724;42.684;23.252;2023-09-18T00:17:38;14.20;;;13.07;;
11338;SDS011;5724;42.684;23.252;2023-09-18T00:20:03;15.43;;;14.05;;
11338;SDS011;5724;42.684;23.252;2023-09-18T00:22:32;15.77;;;14.35;;
11338;SDS011;5724;42.684;23.252;2023-09-18T00:24:58;15.60;;;14.23;;
11338;SDS011;5724;42.684;23.252;2023-09-18T00:27:23;15.63;;;14.43;;
11338;SDS011;5724;42.684;23.252;2023-09-18T00:29:49;16.23;;;14.73;;
11338;SDS011;5724;42.684;23.252;2023-09-18T00:32:14;16.05;;;14.80;;
11338;SDS011;5724;42.684;23.252;2023-09-18T00:34:39;16.55;;;15.25;;
11338;SDS011;5724;42.684;23.252;2023-09-18T00:37:05;16.10;;;14.70;;
11338;SDS011;5724;42.684;23.252;2023-09-18T00:39:30;17.00;;;15.60;;
11338;SDS011;5724;42.684;23.252;2023-09-18T00:41:56;16.05;;;14.50;;
11338;SDS011;5724;42.684;23.252;2023-09-18T00:44:22;18.42;;;16.83;;
11338;SDS011;5724;42.684;23.252;2023-09-18T00:46:51;17.25;;;15.63;;
11338;SDS011;5724;42.684;23.252;2023-09-18T00:49:19;20.25;;;18.15;;
11338;SDS011;5724;42.684;23.252;2023-09-18T00:51:46;17.38;;;16.00;;
11338;SDS011;5724;42.684;23.252;2023-09-18T00:54:12;17.45;;;16.05;;
11338;SDS011;5724;42.684;23.252;2023-09-18T00:56:43;17.23;;;15.77;;
11338;SDS011;5724;42.684;23.252;2023-09-18T00:59:09;18.77;;;17.10;;
11338;SDS011;5724;42.684;23.252;2023-09-18T01:01:35;21.50;;;19.42;;
11338;SDS011;5724;42.684;23.252;2023-09-18T01:04:01;20.40;;;18.33;;
11338;SDS011;5724;42.684;23.252;2023-09-18T01:06:27;20.52;;;18.70;;
11338;SDS011;5724;42.684;23.252;2023-09-18T01:08:55;21.60;;;19.90;;
11338;SDS011;5724;42.684;23.252;2023-09-18T01:11:35;19.92;;;18.15;;
11338;SDS011;5724;42.684;23.252;2023-09-18T01:16:59;22.40;;;19.13;;
11338;SDS011;5724;42.684;23.252;2023-09-18T01:19:38;19.67;;;17.80;;
11338;SDS011;5724;42.684;23.252;2023-09-18T01:22:12;21.88;;;19.90;;
11338;SDS011;5724;42.684;23.252;2023-09-18T01:24:42;20.98;;;19.35;;
11338;SDS011;5724;42.684;23.252;2023-09-18T01:27:09;20.52;;;18.83;;
11338;SDS011;5724;42.684;23.252;2023-09-18T01:29:39;23.75;;;21.77;;
11338;SDS011;5724;42.684;23.252;2023-09-18T01:32:04;21.33;;;19.65;;
11338;SDS011;5724;42.684;23.252;2023-09-18T01:34:49;23.63;;;21.55;;
11338;SDS011;5724;42.684;23.252;2023-09-18T01:37:17;23.63;;;21.60;;
11338;SDS011;5724;42.684;23.252;2023-09-18T01:39:46;22.17;;;20.42;;
11338;SDS011;5724;42.684;23.252;2023-09-18T01:42:13;23.60;;;21.60;;
11338;SDS011;5724;42.684;23.252;2023-09-18T01:44:41;23.85;;;21.90;;
11338;SDS011;5724;42.684;23.252;2023-09-18T01:47:07;22.30;;;20.42;;
11338;SDS011;5724;42.684;23.252;2023-09-18T01:49:35;21.02;;;19.33;;
11338;SDS011;5724;42.684;23.252;2023-09-18T01:52:02;23.52;;;21.27;;
11338;SDS011;5724;42.684;23.252;2023-09-18T01:54:28;21.98;;;20.17;;
11338;SDS011;5724;42.684;23.252;2023-09-18T01:56:54;21.35;;;19.67;;
11338;SDS011;5724;42.684;23.252;2023-09-18T01:59:20;22.25;;;20.17;;
11338;SDS011;5724;42.684;23.252;2023-09-18T02:01:47;21.52;;;19.58;;
11338;SDS011;5724;42.684;23.252;2023-09-18T02:04:13;19.80;;;17.90;;
11338;SDS011;5724;42.684;23.252;2023-09-18T02:06:38;20.52;;;18.75;;
11338;SDS011;5724;42.684;23.252;2023-09-18T02:09:05;21.13;;;19.35;;
11338;SDS011;5724;42.684;23.252;2023-09-18T02:11:32;22.20;;;20.33;;
11338;SDS011;5724;42.684;23.252;2023-09-18T02:13:58;21.60;;;19.77;;
11338;SDS011;5724;42.684;23.252;2023-09-18T02:16:23;21.60;;;19.70;;
11338;SDS011;5724;42.684;23.252;2023-09-18T02:18:49;19.95;;;18.05;;
11338;SDS011;5724;42.684;23.252;2023-09-18T02:21:19;21.38;;;19.77;;
11338;SDS011;5724;42.684;23.252;2023-09-18T02:23:45;21.50;;;19.67;;
11338;SDS011;5724;42.684;23.252;2023-09-18T02:26:13;21.63;;;19.70;;
11338;SDS011;5724;42.684;23.252;2023-09-18T02:28:39;21.88;;;19.73;;
11338;SDS011;5724;42.684;23.252;2023-09-18T02:31:04;21.77;;;20.08;;
11338;SDS011;5724;42.684;23.252;2023-09-18T02:33:30;22.25;;;20.52;;
11338;SDS011;5724;42.684;23.252;2023-09-18T02:35:55;21.58;;;19.77;;
11338;SDS011;5724;42.684;23.252;2023-09-18T02:38:21;22.52;;;20.63;;
11338;SDS011;5724;42.684;23.252;2023-09-18T02:40:46;23.35;;;21.23;;
11338;SDS011;5724;42.684;23.252;2023-09-18T02:43:11;23.83;;;21.45;;
11338;SDS011;5724;42.684;23.252;2023-09-18T02:45:37;21.83;;;20.05;;
11338;SDS011;5724;42.684;23.252;2023-09-18T02:48:02;21.40;;;19.60;;
11338;SDS011;5724;42.684;23.252;2023-09-18T02:50:28;20.95;;;19.25;;
11338;SDS011;5724;42.684;23.252;2023-09-18T02:52:53;21.98;;;19.98;;
11338;SDS011;5724;42.684;23.252;2023-09-18T02:55:18;22.08;;;20.38;;
11338;SDS011;5724;42.684;23.252;2023-09-18T02:57:44;21.60;;;19.65;;
11338;SDS011;5724;42.684;23.252;2023-09-18T03:00:10;21.50;;;19.60;;
11338;SDS011;5724;42.684;23.252;2023-09-18T03:02:35;21.45;;;19.73;;
11338;SDS011;5724;42.684;23.252;2023-09-18T03:05:01;22.27;;;20.30;;
11338;SDS011;5724;42.684;23.252;2023-09-18T03:07:26;20.40;;;18.65;;
11338;SDS011;5724;42.684;23.252;2023-09-18T03:09:54;21.55;;;19.67;;
11338;SDS011;5724;42.684;23.252;2023-09-18T03:12:20;22.35;;;20.42;;
11338;SDS011;5724;42.684;23.252;2023-09-18T03:14:45;21.92;;;20.02;;
11338;SDS011;5724;42.684;23.252;2023-09-18T03:17:12;21.77;;;19.58;;
11338;SDS011;5724;42.684;23.252;2023-09-18T03:19:37;21.90;;;20.05;;
11338;SDS011;5724;42.684;23.252;2023-09-18T03:22:02;20.33;;;18.75;;
11338;SDS011;5724;42.684;23.252;2023-09-18T03:24:28;21.98;;;19.98;;
11338;SDS011;5724;42.684;23.252;2023-09-18T03:26:53;22.23;;;20.23;;
11338;SDS011;5724;42.684;23.252;2023-09-18T03:29:19;21.77;;;19.77;;
11338;SDS011;5724;42.684;23.252;2023-09-18T03:31:44;20.77;;;19.25;;
11338;SDS011;5724;42.684;23.252;2023-09-18T03:34:10;21.42;;;19.48;;
11338;SDS011;5724;42.684;23.252;2023-09-18T03:36:35;21.40;;;19.48;;
11338;SDS011;5724;42.684;23.252;2023-09-18T03:39:02;22.48;;;20.35;;
11338;SDS011;5724;42.684;23.252;2023-09-18T03:41:29;20.92;;;18.80;;
11338;SDS011;5724;42.684;23.252;2023-09-18T03:43:59;20.92;;;19.15;;
11338;SDS011;5724;42.684;23.252;2023-09-18T03:46:27;21.58;;;19.77;;
11338;SDS011;5724;42.684;23.252;2023-09-18T03:48:52;20.23;;;18.63;;
11338;SDS011;5724;42.684;23.252;2023-09-18T03:51:17;20.30;;;18.60;;
11338;SDS011;5724;42.684;23.252;2023-09-18T03:53:44;20.38;;;18.42;;
11338;SDS011;5724;42.684;23.252;2023-09-18T03:56:10;21.05;;;19.05;;
11338;SDS011;5724;42.684;23.252;2023-09-18T03:58:35;20.95;;;19.10;;
11338;SDS011;5724;42.684;23.252;2023-09-18T04:01:00;20.70;;;18.90;;
11338;SDS011;5724;42.684;23.252;2023-09-18T04:03:27;19.70;;;18.23;;
11338;SDS011;5724;42.684;23.252;2023-09-18T04:05:52;21.60;;;19.70;;
11338;SDS011;5724;42.684;23.252;2023-09-18T04:08:17;21.25;;;19.52;;
11338;SDS011;5724;42.684;23.252;2023-09-18T04:10:43;20.67;;;18.67;;
11338;SDS011;5724;42.684;23.252;2023-09-18T04:13:10;22.23;;;20.48;;
11338;SDS011;5724;42.684;23.252;2023-09-18T04:15:35;24.30;;;22.10;;
11338;SDS011;5724;42.684;23.252;2023-09-18T04:18:03;24.92;;;19.88;;
11338;SDS011;5724;42.684;23.252;2023-09-18T04:20:30;21.30;;;19.52;;
11338;SDS011;5724;42.684;23.252;2023-09-18T04:25:44;22.60;;;20.30;;
11338;SDS011;5724;42.684;23.252;2023-09-18T04:28:11;23.25;;;21.02;;
11338;SDS011;5724;42.684;23.252;2023-09-18T04:30:37;23.20;;;20.92;;
11338;SDS011;5724;42.684;23.252;2023-09-18T04:33:03;23.65;;;21.58;;
11338;SDS011;5724;42.684;23.252;2023-09-18T04:35:29;22.17;;;20.30;;
11338;SDS011;5724;42.684;23.252;2023-09-18T04:37:56;23.33;;;21.38;;
11338;SDS011;5724;42.684;23.252;2023-09-18T04:40:22;24.45;;;21.92;;
11338;SDS011;5724;42.684;23.252;2023-09-18T04:42:49;24.17;;;22.08;;
11338;SDS011;5724;42.684;23.252;2023-09-18T04:45:14;24.27;;;21.98;;
11338;SDS011;5724;42.684;23.252;2023-09-18T04:47:41;24.30;;;22.20;;
11338;SDS011;5724;42.684;23.252;2023-09-18T04:50:07;25.50;;;22.80;;
11338;SDS011;5724;42.684;23.252;2023-09-18T04:52:35;25.48;;;22.75;;
11338;SDS011;5724;42.684;23.252;2023-09-18T04:55:05;25.88;;;23.30;;
11338;SDS011;5724;42.684;23.252;2023-09-18T04:57:31;25.65;;;23.17;;
11338;SDS011;5724;42.684;23.252;2023-09-18T04:59:56;27.17;;;24.50;;
11338;SDS011;5724;42.684;23.252;2023-09-18T05:02:22;26.38;;;23.83;;
11338;SDS011;5724;42.684;23.252;2023-09-18T05:04:50;24.77;;;22.63;;
11338;SDS011;5724;42.684;23.252;2023-09-18T05:07:16;25.02;;;22.90;;
11338;SDS011;5724;42.684;23.252;2023-09-18T05:09:41;27.58;;;24.00;;
11338;SDS011;5724;42.684;23.252;2023-09-18T05:12:06;26.50;;;23.90;;
11338;SDS011;5724;42.684;23.252;2023-09-18T05:14:38;25.10;;;22.77;;
11338;SDS011;5724;42.684;23.252;2023-09-18T05:17:09;25.30;;;23.08;;
11338;SDS011;5724;42.684;23.252;2023-09-18T05:19:36;25.42;;;22.67;;
11338;SDS011;5724;42.684;23.252;2023-09-18T05:22:01;23.88;;;22.02;;
11338;SDS011;5724;42.684;23.252;2023-09-18T05:24:28;24.65;;;22.13;;
11338;SDS011;5724;42.684;23.252;2023-09-18T05:26:54;24.40;;;22.15;;
11338;SDS011;5724;42.684;23.252;2023-09-18T05:29:20;25.25;;;22.90;;
11338;SDS011;5724;42.684;23.252;2023-09-18T05:31:45;26.35;;;23.63;;
11338;SDS011;5724;42.684;23.252;2023-09-18T05:34:11;26.67;;;24.08;;
11338;SDS011;5724;42.684;23.252;2023-09-18T05:36:37;25.63;;;23.13;;
11338;SDS011;5724;42.684;23.252;2023-09-18T05:39:03;25.23;;;22.92;;
11338;SDS011;5724;42.684;23.252;2023-09-18T05:41:30;23.27;;;21.13;;
11338;SDS011;5724;42.684;23.252;2023-09-18T05:43:56;23.73;;;21.73;;
11338;SDS011;5724;42.684;23.252;2023-09-18T05:46:22;25.92;;;22.52;;
11338;SDS011;5724;42.684;23.252;2023-09-18T05:48:47;25.25;;;22.80;;
11338;SDS011;5724;42.684;23.252;2023-09-18T05:51:13;24.48;;;22.20;;
11338;SDS011;5724;42.684;23.252;2023-09-18T05:53:38;26.00;;;23.17;;
11338;SDS011;5724;42.684;23.252;2023-09-18T05:56:04;25.52;;;23.15;;
11338;SDS011;5724;42.684;23.252;2023-09-18T05:58:31;24.85;;;22.38;;
11338;SDS011;5724;42.684;23.252;2023-09-18T06:00:58;25.15;;;22.75;;
11338;SDS011;5724;42.684;23.252;2023-09-18T06:03:25;25.58;;;23.10;;
11338;SDS011;5724;42.684;23.252;2023-09-18T06:05:55;25.23;;;22.55;;
11338;SDS011;5724;42.684;23.252;2023-09-18T06:08:21;25.45;;;22.73;;
11338;SDS011;5724;42.684;23.252;2023-09-18T06:10:47;25.90;;;23.35;;
11338;SDS011;5724;42.684;23.252;2023-09-18T06:13:13;24.27;;;21.13;;
11338;SDS011;5724;42.684;23.252;2023-09-18T06:15:38;24.80;;;22.27;;
11338;SDS011;5724;42.684;23.252;2023-09-18T06:18:04;25.98;;;22.35;;
11338;SDS011;5724;42.684;23.252;2023-09-18T06:20:31;23.98;;;21.77;;
11338;SDS011;5724;42.684;23.252;2023-09-18T06:22:56;25.05;;;22.50;;
11338;SDS011;5724;42.684;23.252;2023-09-18T06:25:22;25.48;;;22.67;;
11338;SDS011;5724;42.684;23.252;2023-09-18T06:27:47;23.95;;;21.52;;
11338;SDS011;5724;42.684;23.252;2023-09-18T06:30:12;24.70;;;22.48;;
11338;SDS011;5724;42.684;23.252;2023-09-18T06:32:38;22.83;;;20.83;;
11338;SDS011;5724;42.684;23.252;2023-09-18T06:35:04;23.77;;;21.40;;
11338;SDS011;5724;42.684;23.252;2023-09-18T06:37:29;24.80;;;22.13;;
11338;SDS011;5724;42.684;23.252;2023-09-18T06:39:56;24.52;;;22.38;;
11338;SDS011;5724;42.684;23.252;2023-09-18T06:42:24;24.10;;;21.80;;
11338;SDS011;5724;42.684;23.252;2023-09-18T06:44:50;23.98;;;21.98;;
11338;SDS011;5724;42.684;23.252;2023-09-18T06:47:15;23.98;;;21.80;;
11338;SDS011;5724;42.684;23.252;2023-09-18T06:49:41;24.50;;;22.17;;
11338;SDS011;5724;42.684;23.252;2023-09-18T06:52:07;23.85;;;21.85;;
11338;SDS011;5724;42.684;23.252;2023-09-18T06:54:34;23.20;;;21.05;;
11338;SDS011;5724;42.684;23.252;2023-09-18T06:56:59;22.65;;;20.52;;
11338;SDS011;5724;42.684;23.252;2023-09-18T06:59:25;23.63;;;21.45;;
11338;SDS011;5724;42.684;23.252;2023-09-18T07:01:50;23.05;;;21.05;;
11338;SDS011;5724;42.684;23.252;2023-09-18T07:04:15;21.48;;;19.75;;
11338;SDS011;5724;42.684;23.252;2023-09-18T07:06:41;23.50;;;21.38;;
11338;SDS011;5724;42.684;23.252;2023-09-18T07:09:06;21.73;;;19.77;;
11338;SDS011;5724;42.684;23.252;2023-09-18T07:11:32;21.58;;;19.70;;
11338;SDS011;5724;42.684;23.252;2023-09-18T07:13:58;21.13;;;19.33;;
11338;SDS011;5724;42.684;23.252;2023-09-18T07:16:24;22.17;;;19.95;;
11338;SDS011;5724;42.684;23.252;2023-09-18T07:18:51;22.05;;;20.25;;
11338;SDS011;5724;42.684;23.252;2023-09-18T07:21:16;21.15;;;18.88;;
11338;SDS011;5724;42.684;23.252;2023-09-18T07:23:43;19.58;;;18.05;;
11338;SDS011;5724;42.684;23.252;2023-09-18T07:26:11;20.30;;;18.73;;
11338;SDS011;5724;42.684;23.252;2023-09-18T07:28:36;18.60;;;16.92;;
11338;SDS011;5724;42.684;23.252;2023-09-18T07:31:06;17.88;;;16.48;;
11338;SDS011;5724;42.684;23.252;2023-09-18T07:33:32;19.33;;;17.65;;
11338;SDS011;5724;42.684;23.252;2023-09-18T07:35:57;17.73;;;16.27;;
11338;SDS011;5724;42.684;23.252;2023-09-18T07:38:23;18.48;;;16.90;;
11338;SDS011;5724;42.684;23.252;2023-09-18T07:40:50;18.27;;;16.80;;
11338;SDS011;5724;42.684;23.252;2023-09-18T07:43:15;18.23;;;16.63;;
11338;SDS011;5724;42.684;23.252;2023-09-18T07:45:40;19.02;;;17.45;;
11338;SDS011;5724;42.684;23.252;2023-09-18T07:48:06;18.90;;;17.15;;
11338;SDS011;5724;42.684;23.252;2023-09-18T07:50:32;17.52;;;16.02;;
11338;SDS011;5724;42.684;23.252;2023-09-18T07:52:59;17.20;;;15.82;;
11338;SDS011;5724;42.684;23.252;2023-09-18T07:55:25;17.88;;;16.35;;
11338;SDS011;5724;42.684;23.252;2023-09-18T07:57:51;17.80;;;16.38;;
11338;SDS011;5724;42.684;23.252;2023-09-18T08:00:17;17.67;;;16.27;;
11338;SDS011;5724;42.684;23.252;2023-09-18T08:02:43;16.40;;;15.05;;
11338;SDS011;5724;42.684;23.252;2023-09-18T08:05:09;16.00;;;14.82;;
11338;SDS011;5724;42.684;23.252;2023-09-18T08:07:35;16.20;;;14.88;;
11338;SDS011;5724;42.684;23.252;2023-09-18T08:10:02;16.58;;;15.25;;
11338;SDS011;5724;42.684;23.252;2023-09-18T08:12:31;17.05;;;15.60;;
11338;SDS011;5724;42.684;23.252;2023-09-18T08:14:57;16.70;;;15.27;;
11338;SDS011;5724;42.684;23.252;2023-09-18T08:17:24;17.13;;;15.63;;
11338;SDS011;5724;42.684;23.252;2023-09-18T08:19:51;16.65;;;15.20;;
11338;SDS011;5724;42.684;23.252;2023-09-18T08:22:18;16.00;;;14.70;;
11338;SDS011;5724;42.684;23.252;2023-09-18T08:24:44;16.88;;;15.23;;
11338;SDS011;5724;42.684;23.252;2023-09-18T08:27:11;16.45;;;14.82;;
11338;SDS011;5724;42.684;23.252;2023-09-18T08:29:38;17.27;;;15.88;;
11338;SDS011;5724;42.684;23.252;2023-09-18T08:32:04;15.52;;;14.43;;
11338;SDS011;5724;42.684;23.252;2023-09-18T08:34:29;16.40;;;15.10;;
11338;SDS011;5724;42.684;23.252;2023-09-18T08:36:54;16.65;;;15.43;;
11338;SDS011;5724;42.684;23.252;2023-09-18T08:39:20;17.02;;;15.45;;
11338;SDS011;5724;42.684;23.252;2023-09-18T08:41:45;16.63;;;15.32;;
11338;SDS011;5724;42.684;23.252;2023-09-18T08:44:16;15.13;;;13.88;;
11338;SDS011;5724;42.684;23.252;2023-09-18T08:46:42;17.30;;;15.75;;
11338;SDS011;5724;42.684;23.252;2023-09-18T08:49:09;15.23;;;13.90;;
11338;SDS011;5724;42.684;23.252;2023-09-18T08:51:36;16.90;;;15.50;;
11338;SDS011;5724;42.684;23.252;2023-09-18T08:54:03;17.25;;;15.65;;
11338;SDS011;5724;42.684;23.252;2023-09-18T08:56:29;16.10;;;14.77;;
11338;SDS011;5724;42.684;23.252;2023-09-18T08:58:56;16.65;;;15.32;;
11338;SDS011;5724;42.684;23.252;2023-09-18T09:01:23;17.65;;;16.25;;
11338;SDS011;5724;42.684;23.252;2023-09-18T09:03:48;15.75;;;14.55;;
11338;SDS011;5724;42.684;23.252;2023-09-18T09:06:13;15.93;;;14.40;;
11338;SDS011;5724;42.684;23.252;2023-09-18T09:08:40;14.80;;;13.70;;
11338;SDS011;5724;42.684;23.252;2023-09-18T09:11:05;14.27;;;12.98;;
11338;SDS011;5724;42.684;23.252;2023-09-18T09:13:31;14.35;;;13.25;;
11338;SDS011;5724;42.684;23.252;2023-09-18T09:15:57;14.75;;;13.52;;
11338;SDS011;5724;42.684;23.252;2023-09-18T09:18:26;13.93;;;12.93;;
11338;SDS011;5724;42.684;23.252;2023-09-18T09:20:56;15.30;;;14.02;;
11338;SDS011;5724;42.684;23.252;2023-09-18T09:23:25;14.98;;;13.80;;
11338;SDS011;5724;42.684;23.252;2023-09-18T09:25:52;14.52;;;13.35;;
11338;SDS011;5724;42.684;23.252;2023-09-18T09:28:31;15.48;;;14.00;;
11338;SDS011;5724;42.684;23.252;2023-09-18T09:31:00;14.63;;;13.43;;
11338;SDS011;5724;42.684;23.252;2023-09-18T09:33:28;13.55;;;12.55;;
11338;SDS011;5724;42.684;23.252;2023-09-18T09:35:55;13.20;;;12.15;;
11338;SDS011;5724;42.684;23.252;2023-09-18T09:38:22;13.00;;;11.85;;
11338;SDS011;5724;42.684;23.252;2023-09-18T09:40:53;11.57;;;10.88;;
11338;SDS011;5724;42.684;23.252;2023-09-18T09:43:19;11.68;;;10.77;;
11338;SDS011;5724;42.684;23.252;2023-09-18T09:45:45;10.80;;;10.00;;
11338;SDS011;5724;42.684;23.252;2023-09-18T09:48:11;11.20;;;10.50;;
11338;SDS011;5724;42.684;23.252;2023-09-18T09:50:43;11.23;;;10.25;;
11338;SDS011;5724;42.684;23.252;2023-09-18T09:53:13;11.27;;;10.48;;
11338;SDS011;5724;42.684;23.252;2023-09-18T09:55:39;9.82;;;9.18;;
11338;SDS011;5724;42.684;23.252;2023-09-18T09:58:06;10.52;;;9.80;;
11338;SDS011;5724;42.684;23.252;2023-09-18T10:03:11;10.85;;;10.02;;
11338;SDS011;5724;42.684;23.252;2023-09-18T10:05:42;10.43;;;9.70;;
11338;SDS011;5724;42.684;23.252;2023-09-18T10:08:12;10.93;;;10.05;;
11338;SDS011;5724;42.684;23.252;2023-09-18T10:10:45;11.50;;;10.70;;
11338;SDS011;5724;42.684;23.252;2023-09-18T10:13:17;9.32;;;8.55;;
11338;SDS011;5724;42.684;23.252;2023-09-18T10:15:50;9.40;;;8.65;;
11338;SDS011;5724;42.684;23.252;2023-09-18T10:18:17;8.35;;;7.85;;
11338;SDS011;5724;42.684;23.252;2023-09-18T10:20:51;10.73;;;10.10;;
11338;SDS011;5724;42.684;23.252;2023-09-18T10:23:28;9.70;;;9.07;;
11338;SDS011;5724;42.684;23.252;2023-09-18T10:26:09;16.15;;;14.77;;
11338;SDS011;5724;42.684;23.252;2023-09-18T10:28:41;9.70;;;9.10;;
11338;SDS011;5724;42.684;23.252;2023-09-18T10:31:09;9.48;;;8.65;;
11338;SDS011;5724;42.684;23.252;2023-09-18T10:33:36;8.98;;;8.18;;
11338;SDS011;5724;42.684;23.252;2023-09-18T10:36:03;8.65;;;8.07;;
11338;SDS011;5724;42.684;23.252;2023-09-18T10:38:30;9.95;;;9.25;;
11338;SDS011;5724;42.684;23.252;2023-09-18T10:40:57;10.43;;;9.20;;
11338;SDS011;5724;42.684;23.252;2023-09-18T10:43:24;9.00;;;8.18;;
11338;SDS011;5724;42.684;23.252;2023-09-18T10:45:49;9.43;;;8.82;;
11338;SDS011;5724;42.684;23.252;2023-09-18T10:48:17;7.75;;;7.15;;
11338;SDS011;5724;42.684;23.252;2023-09-18T10:50:44;8.45;;;7.80;;
11338;SDS011;5724;42.684;23.252;2023-09-18T10:53:11;8.15;;;7.45;;
11338;SDS011;5724;42.684;23.252;2023-09-18T10:55:37;9.05;;;8.45;;
11338;SDS011;5724;42.684;23.252;2023-09-18T10:58:03;8.20;;;7.65;;
11338;SDS011;5724;42.684;23.252;2023-09-18T11:00:29;9.25;;;8.40;;
11338;SDS011;5724;42.684;23.252;2023-09-18T11:05:36;9.75;;;9.05;;
11338;SDS011;5724;42.684;23.252;2023-09-18T11:13:28;7.43;;;6.68;;
11338;SDS011;5724;42.684;23.252;2023-09-18T11:15:58;7.63;;;7.10;;
11338;SDS011;5724;42.684;23.252;2023-09-18T11:18:31;6.88;;;6.55;;
11338;SDS011;5724;42.684;23.252;2023-09-18T11:21:10;7.25;;;6.65;;
11338;SDS011;5724;42.684;23.252;2023-09-18T11:23:37;9.10;;;6.18;;
11338;SDS011;5724;42.684;23.252;2023-09-18T11:26:10;6.80;;;6.22;;
11338;SDS011;5724;42.684;23.252;2023-09-18T11:28:36;6.47;;;6.10;;
11338;SDS011;5724;42.684;23.252;2023-09-18T11:31:04;7.10;;;6.65;;
11338;SDS011;5724;42.684;23.252;2023-09-18T11:36:09;6.35;;;5.72;;
11338;SDS011;5724;42.684;23.252;2023-09-18T11:38:55;6.85;;;6.30;;
11338;SDS011;5724;42.684;23.252;2023-09-18T11:41:29;5.38;;;5.10;;
11338;SDS011;5724;42.684;23.252;2023-09-18T11:46:47;6.10;;;5.70;;
11338;SDS011;5724;42.684;23.252;2023-09-18T11:49:20;7.43;;;5.72;;
11338;SDS011;5724;42.684;23.252;2023-09-18T11:51:47;6.05;;;5.63;;
11338;SDS011;5724;42.684;23.252;2023-09-18T11:54:12;6.05;;;5.60;;
11338;SDS011;5724;42.684;23.252;2023-09-18T11:56:41;5.97;;;5.35;;
11338;SDS011;5724;42.684;23.252;2023-09-18T11:59:06;5.35;;;5.03;;
11338;SDS011;5724;42.684;23.252;2023-09-18T12:01:33;5.25;;;4.97;;
11338;SDS011;5724;42.684;23.252;2023-09-18T12:04:04;5.60;;;5.28;;
11338;SDS011;5724;42.684;23.252;2023-09-18T12:06:34;5.47;;;5.07;;
11338;SDS011;5724;42.684;23.252;2023-09-18T12:09:00;5.90;;;5.35;;
11338;SDS011;5724;42.684;23.252;2023-09-18T12:11:27;6.03;;;4.70;;
11338;SDS011;5724;42.684;23.252;2023-09-18T12:13:52;9.10;;;5.50;;
11338;SDS011;5724;42.684;23.252;2023-09-18T12:16:18;6.30;;;5.20;;
11338;SDS011;5724;42.684;23.252;2023-09-18T12:18:47;6.28;;;5.75;;
11338;SDS011;5724;42.684;23.252;2023-09-18T12:21:14;5.72;;;5.25;;
11338;SDS011;5724;42.684;23.252;2023-09-18T12:23:42;5.38;;;4.95;;
11338;SDS011;5724;42.684;23.252;2023-09-18T12:26:12;5.05;;;4.65;;
11338;SDS011;5724;42.684;23.252;2023-09-18T12:28:41;5.53;;;5.10;;
11338;SDS011;5724;42.684;23.252;2023-09-18T12:31:11;6.40;;;4.40;;
11338;SDS011;5724;42.684;23.252;2023-09-18T12:33:38;5.45;;;5.15;;
11338;SDS011;5724;42.684;23.252;2023-09-18T12:36:05;5.85;;;4.97;;
11338;SDS011;5724;42.684;23.252;2023-09-18T12:38:32;6.05;;;5.15;;
11338;SDS011;5724;42.684;23.252;2023-09-18T12:40:58;5.53;;;5.22;;
11338;SDS011;5724;42.684;23.252;2023-09-18T12:43:32;5.32;;;5.03;;
11338;SDS011;5724;42.684;23.252;2023-09-18T12:45:59;5.63;;;5.10;;
11338;SDS011;5724;42.684;23.252;2023-09-18T12:48:25;5.72;;;5.43;;
11338;SDS011;5724;42.684;23.252;2023-09-18T12:50:54;5.72;;;5.22;;
11338;SDS011;5724;42.684;23.252;2023-09-18T12:53:21;5.80;;;5.30;;
11338;SDS011;5724;42.684;23.252;2023-09-18T12:55:47;5.65;;;5.25;;
11338;SDS011;5724;42.684;23.252;2023-09-18T12:58:18;6.32;;;5.18;;
11338;SDS011;5724;42.684;23.252;2023-09-18T13:00:44;6.45;;;5.95;;
11338;SDS011;5724;42.684;23.252;2023-09-18T13:03:16;5.47;;;5.10;;
11338;SDS011;5724;42.684;23.252;2023-09-18T13:05:42;7.93;;;5.65;;
11338;SDS011;5724;42.684;23.252;2023-09-18T13:08:07;5.63;;;5.15;;
11338;SDS011;5724;42.684;23.252;2023-09-18T13:10:40;5.93;;;5.35;;
11338;SDS011;5724;42.684;23.252;2023-09-18T13:13:15;6.30;;;5.72;;
11338;SDS011;5724;42.684;23.252;2023-09-18T13:15:50;5.78;;;5.38;;
11338;SDS011;5724;42.684;23.252;2023-09-18T13:18:16;5.63;;;5.13;;
11338;SDS011;5724;42.684;23.252;2023-09-18T13:20:42;5.57;;;5.15;;
11338;SDS011;5724;42.684;23.252;2023-09-18T13:23:08;5.72;;;5.32;;
11338;SDS011;5724;42.684;23.252;2023-09-18T13:25:38;5.22;;;4.80;;
11338;SDS011;5724;42.684;23.252;2023-09-18T13:28:08;5.50;;;5.20;;
11338;SDS011;5724;42.684;23.252;2023-09-18T13:30:35;7.40;;;5.38;;
11338;SDS011;5724;42.684;23.252;2023-09-18T13:33:07;7.32;;;5.65;;
11338;SDS011;5724;42.684;23.252;2023-09-18T13:35:36;5.32;;;5.05;;
11338;SDS011;5724;42.684;23.252;2023-09-18T13:38:03;5.47;;;5.18;;
11338;SDS011;5724;42.684;23.252;2023-09-18T13:40:33;6.50;;;5.90;;
11338;SDS011;5724;42.684;23.252;2023-09-18T13:43:02;5.70;;;5.22;;
11338;SDS011;5724;42.684;23.252;2023-09-18T13:45:31;6.13;;;5.60;;
11338;SDS011;5724;42.684;23.252;2023-09-18T13:47:57;5.65;;;5.15;;
11338;SDS011;5724;42.684;23.252;2023-09-18T13:50:24;6.25;;;5.90;;
11338;SDS011;5724;42.684;23.252;2023-09-18T13:52:49;5.97;;;5.53;;
11338;SDS011;5724;42.684;23.252;2023-09-18T13:55:16;5.63;;;5.18;;
11338;SDS011;5724;42.684;23.252;2023-09-18T13:57:42;5.90;;;5.60;;
11338;SDS011;5724;42.684;23.252;2023-09-18T14:00:07;5.75;;;5.30;;
11338;SDS011;5724;42.684;23.252;2023-09-18T14:02:37;5.70;;;5.20;;
11338;SDS011;5724;42.684;23.252;2023-09-18T14:05:03;5.28;;;4.78;;
11338;SDS011;5724;42.684;23.252;2023-09-18T14:07:29;5.78;;;4.93;;
11338;SDS011;5724;42.684;23.252;2023-09-18T14:09:54;5.07;;;4.68;;
11338;SDS011;5724;42.684;23.252;2023-09-18T14:12:20;5.32;;;4.85;;
11338;SDS011;5724;42.684;23.252;2023-09-18T14:14:46;5.78;;;5.38;;
11338;SDS011;5724;42.684;23.252;2023-09-18T14:17:11;5.63;;;4.65;;
11338;SDS011;5724;42.684;23.252;2023-09-18T14:19:37;5.45;;;5.05;;
11338;SDS011;5724;42.684;23.252;2023-09-18T14:22:03;6.28;;;5.22;;
11338;SDS011;5724;42.684;23.252;2023-09-18T14:24:30;5.63;;;5.15;;
11338;SDS011;5724;42.684;23.252;2023-09-18T14:27:03;4.82;;;4.50;;
11338;SDS011;5724;42.684;23.252;2023-09-18T14:29:29;4.97;;;4.55;;
11338;SDS011;5724;42.684;23.252;2023-09-18T14:32:01;7.85;;;5.10;;
11338;SDS011;5724;42.684;23.252;2023-09-18T14:34:28;5.72;;;5.22;;
11338;SDS011;5724;42.684;23.252;2023-09-18T14:36:55;5.43;;;4.95;;
11338;SDS011;5724;42.684;23.252;2023-09-18T14:39:21;5.28;;;4.93;;
11338;SDS011;5724;42.684;23.252;2023-09-18T14:41:47;5.43;;;5.13;;
11338;SDS011;5724;42.684;23.252;2023-09-18T14:44:13;5.30;;;4.90;;
11338;SDS011;5724;42.684;23.252;2023-09-18T14:46:39;5.18;;;4.88;;
11338;SDS011;5724;42.684;23.252;2023-09-18T14:49:05;5.35;;;4.95;;